createdAt,value
2018-11-06T00:00:14.083Z,303.40
2018-11-06T00:01:14.204Z,321.80
2018-11-06T00:02:14.023Z,328.70
2018-11-06T00:03:13.995Z,317.00
2018-11-06T00:04:13.966Z,328.60
2018-11-06T00:05:13.947Z,326.60
2018-11-06T00:06:13.909Z,301.80
2018-11-06T00:07:13.879Z,336.20
2018-11-06T00:08:13.850Z,321.10
2018-11-06T00:09:13.884Z,313.60
2018-11-06T00:10:13.796Z,314.30
2018-11-06T00:11:13.767Z,323.30
2018-11-06T00:12:13.732Z,317.70
2018-11-06T00:13:13.704Z,319.20
2018-11-06T00:14:13.678Z,342.10
2018-11-06T00:15:13.648Z,314.40
2018-11-06T00:16:13.616Z,322.40
2018-11-06T00:17:13.587Z,315.20
2018-11-06T00:18:13.557Z,319.90
2018-11-06T00:19:13.531Z,333.60
2018-11-06T00:20:13.501Z,307.10
2018-11-06T00:21:13.469Z,306.00
2018-11-06T00:22:13.440Z,322.60
2018-11-06T00:23:13.411Z,315.50
2018-11-06T00:24:13.382Z,323.20
2018-11-06T00:25:13.353Z,306.30
2018-11-06T00:26:13.326Z,318.30
2018-11-06T00:27:13.301Z,320.00
2018-11-06T00:28:13.265Z,313.90
2018-11-06T00:29:13.237Z,325.40
2018-11-06T00:30:13.206Z,324.60
2018-11-06T00:31:13.176Z,311.30
2018-11-06T00:32:13.148Z,321.00
2018-11-06T00:33:13.119Z,330.70
2018-11-06T00:34:13.213Z,316.40
2018-11-06T00:35:13.060Z,334.50
2018-11-06T00:36:13.030Z,319.80
2018-11-06T00:37:13.006Z,335.10
2018-11-06T00:38:12.972Z,344.90
2018-11-06T00:39:12.942Z,334.50
2018-11-06T00:40:12.914Z,325.20
2018-11-06T00:41:12.887Z,327.20
2018-11-06T00:42:12.856Z,347.30
2018-11-06T00:43:12.827Z,359.20
2018-11-06T00:44:12.797Z,360.90
2018-11-06T00:45:12.768Z,331.20
2018-11-06T00:46:12.741Z,363.20
2018-11-06T00:47:12.709Z,337.80
2018-11-06T00:48:12.681Z,340.40
2018-11-06T00:49:12.649Z,337.30
2018-11-06T00:50:12.620Z,359.80
2018-11-06T00:51:12.591Z,341.20
2018-11-06T00:52:12.564Z,347.30
2018-11-06T00:53:12.533Z,351.10
2018-11-06T00:54:12.503Z,372.60
2018-11-06T00:55:12.474Z,363.00
2018-11-06T00:56:12.448Z,380.90
2018-11-06T00:57:12.415Z,374.70
2018-11-06T00:58:12.389Z,397.80
2018-11-06T00:59:12.355Z,402.50
2018-11-06T01:00:12.332Z,406.10
2018-11-06T01:01:12.300Z,402.70
2018-11-06T01:02:12.269Z,415.70
2018-11-06T01:03:12.246Z,390.80
2018-11-06T01:04:12.209Z,413.10
2018-11-06T01:05:12.180Z,411.50
2018-11-06T01:06:12.150Z,418.00
2018-11-06T01:07:12.120Z,417.60
2018-11-06T01:08:12.091Z,414.70
2018-11-06T01:09:12.063Z,426.40
2018-11-06T01:10:12.035Z,421.20
2018-11-06T01:11:12.010Z,443.70
2018-11-06T01:12:11.973Z,449.50
2018-11-06T01:13:11.944Z,440.60
2018-11-06T01:14:11.914Z,466.20
2018-11-06T01:15:11.884Z,469.20
2018-11-06T01:16:11.856Z,479.80
2018-11-06T01:17:11.827Z,460.80
2018-11-06T01:18:11.798Z,501.60
2018-11-06T01:19:11.771Z,490.50
2018-11-06T01:20:11.738Z,509.90
2018-11-06T01:21:11.712Z,487.10
2018-11-06T01:22:11.678Z,570.60
2018-11-06T01:23:11.649Z,1280.90
2018-11-06T01:24:11.637Z,893.80
2018-11-06T01:25:11.591Z,955.50
2018-11-06T01:26:11.561Z,1786.40
2018-11-06T01:27:11.533Z,1677.10
2018-11-06T01:28:11.501Z,1518.80
2018-11-06T01:29:11.473Z,1834.00
2018-11-06T01:30:11.445Z,1152.30
2018-11-06T01:31:11.414Z,869.50
2018-11-06T01:32:11.385Z,1066.50
2018-11-06T01:33:11.358Z,986.10
2018-11-06T01:34:11.325Z,1253.80
2018-11-06T01:35:11.297Z,1336.40
2018-11-06T01:36:11.273Z,1139.70
2018-11-06T01:37:11.237Z,981.50
2018-11-06T01:38:11.209Z,1300.00
2018-11-06T01:39:11.183Z,1871.70
2018-11-06T01:40:11.151Z,1627.70
2018-11-06T01:41:11.121Z,1165.30
2018-11-06T01:42:11.089Z,1216.70
2018-11-06T01:43:11.061Z,1344.60
2018-11-06T01:44:11.033Z,1162.50
2018-11-06T01:45:11.005Z,1269.40
2018-11-06T01:46:10.981Z,1505.30
2018-11-06T01:47:10.945Z,1146.10
2018-11-06T01:48:11.070Z,1885.80
2018-11-06T01:49:10.891Z,1740.90
2018-11-06T01:50:10.859Z,1927.80
2018-11-06T01:51:10.832Z,1401.50
2018-11-06T01:52:10.798Z,1177.10
2018-11-06T01:53:10.769Z,1999.90
2018-11-06T01:54:10.739Z,1760.40
2018-11-06T01:55:10.711Z,1999.90
2018-11-06T01:56:10.682Z,1101.10
2018-11-06T01:57:10.652Z,1375.00
2018-11-06T01:58:10.621Z,1115.00
2018-11-06T01:59:10.644Z,1355.40
2018-11-06T02:00:10.564Z,1234.60
2018-11-06T02:01:10.535Z,1227.50
2018-11-06T02:02:10.506Z,1140.60
2018-11-06T02:03:10.480Z,1224.30
2018-11-06T02:04:10.449Z,1682.20
2018-11-06T02:05:10.418Z,1455.30
2018-11-06T02:06:10.387Z,1258.70
2018-11-06T02:07:10.359Z,1530.90
2018-11-06T02:08:10.330Z,1153.60
2018-11-06T02:09:10.303Z,1493.30
2018-11-06T02:10:10.271Z,1237.20
2018-11-06T02:11:10.245Z,1485.00
2018-11-06T02:12:10.214Z,1445.40
2018-11-06T02:13:10.186Z,1260.00
2018-11-06T02:14:10.155Z,1276.40
2018-11-06T02:15:10.128Z,1342.80
2018-11-06T02:16:10.097Z,1297.20
2018-11-06T02:17:10.067Z,1204.10
2018-11-06T02:18:10.037Z,1359.90
2018-11-06T02:19:10.007Z,1399.80
2018-11-06T02:20:09.979Z,1253.00
2018-11-06T02:21:09.950Z,1434.30
2018-11-06T02:22:09.923Z,1097.30
2018-11-06T02:23:09.891Z,1414.90
2018-11-06T02:24:09.862Z,1464.60
2018-11-06T02:25:09.832Z,1571.40
2018-11-06T02:26:09.803Z,1412.60
2018-11-06T02:27:09.776Z,1454.30
2018-11-06T02:28:09.796Z,1640.70
2018-11-06T02:29:09.716Z,1461.00
2018-11-06T02:30:09.685Z,1287.30
2018-11-06T02:31:09.657Z,1563.30
2018-11-06T02:32:09.630Z,1999.90
2018-11-06T02:33:09.604Z,1444.20
2018-11-06T02:34:09.573Z,1519.50
2018-11-06T02:35:09.539Z,1253.00
2018-11-06T02:36:09.517Z,1948.90
2018-11-06T02:37:09.484Z,1643.90
2018-11-06T02:38:09.453Z,1908.10
2018-11-06T02:39:09.423Z,1875.20
2018-11-06T02:40:09.394Z,1653.40
2018-11-06T02:41:09.376Z,912.60
2018-11-06T02:42:09.339Z,793.40
2018-11-06T02:43:09.305Z,1025.60
2018-11-06T02:44:09.281Z,1194.20
2018-11-06T02:45:09.253Z,1886.20
2018-11-06T02:46:09.216Z,1590.30
2018-11-06T02:47:09.193Z,1089.90
2018-11-06T02:48:09.161Z,1167.60
2018-11-06T02:49:09.132Z,1296.90
2018-11-06T02:50:09.100Z,1181.10
2018-11-06T02:51:09.073Z,1531.60
2018-11-06T02:52:09.049Z,1962.70
2018-11-06T02:53:09.024Z,1229.40
2018-11-06T02:54:08.983Z,1108.50
2018-11-06T02:55:08.952Z,844.00
2018-11-06T02:56:08.927Z,1055.20
2018-11-06T02:57:08.895Z,1162.60
2018-11-06T02:58:08.863Z,1626.70
2018-11-06T02:59:08.836Z,1093.70
2018-11-06T03:00:08.806Z,849.00
2018-11-06T03:01:08.777Z,952.60
2018-11-06T03:02:08.749Z,1293.70
2018-11-06T03:03:08.719Z,1223.80
2018-11-06T03:04:08.689Z,1030.80
2018-11-06T03:05:08.663Z,1190.00
2018-11-06T03:06:08.630Z,1380.80
2018-11-06T03:07:08.602Z,1555.70
2018-11-06T03:08:08.574Z,1165.60
2018-11-06T03:09:08.542Z,1715.90
2018-11-06T03:10:08.526Z,1327.30
2018-11-06T03:11:08.483Z,1719.50
2018-11-06T03:12:08.454Z,987.30
2018-11-06T03:13:08.424Z,1154.90
2018-11-06T03:14:08.395Z,1086.80
2018-11-06T03:15:08.369Z,989.90
2018-11-06T03:16:08.336Z,1458.80
2018-11-06T03:17:08.308Z,1450.70
2018-11-06T03:18:08.276Z,1999.90
2018-11-06T03:19:08.247Z,1999.90
2018-11-06T03:20:08.218Z,698.50
2018-11-06T03:21:08.189Z,1132.60
2018-11-06T03:22:08.159Z,958.30
2018-11-06T03:23:08.130Z,1085.90
2018-11-06T03:24:08.105Z,1120.50
2018-11-06T03:25:08.071Z,1055.40
2018-11-06T03:26:08.041Z,1178.20
2018-11-06T03:27:08.131Z,1230.50
2018-11-06T03:28:07.982Z,1779.20
2018-11-06T03:29:07.953Z,1867.00
2018-11-06T03:30:07.924Z,1606.80
2018-11-06T03:31:07.900Z,1794.20
2018-11-06T03:32:07.863Z,1417.70
2018-11-06T03:33:07.839Z,1960.20
2018-11-06T03:34:07.811Z,1581.40
2018-11-06T03:35:07.779Z,1385.00
2018-11-06T03:36:07.746Z,1523.70
2018-11-06T03:37:07.717Z,1999.90
2018-11-06T03:38:07.686Z,1808.90
2018-11-06T03:39:07.665Z,1457.20
2018-11-06T03:40:07.628Z,1787.20
2018-11-06T03:41:07.602Z,1999.90
2018-11-06T03:42:07.571Z,1999.90
2018-11-06T03:43:07.538Z,1697.20
2018-11-06T03:44:07.517Z,1679.60
2018-11-06T03:45:07.483Z,1386.00
2018-11-06T03:46:07.453Z,1681.60
2018-11-06T03:47:07.420Z,1513.70
2018-11-06T03:48:07.396Z,1425.20
2018-11-06T03:49:07.362Z,1538.70
2018-11-06T03:50:07.331Z,1549.00
2018-11-06T03:51:07.302Z,1652.90
2018-11-06T03:52:07.272Z,1651.80
2018-11-06T03:53:07.249Z,1882.00
2018-11-06T03:54:07.216Z,1760.40
2018-11-06T03:55:07.184Z,1401.90
2018-11-06T03:56:07.154Z,1238.80
2018-11-06T03:57:07.128Z,1381.30
2018-11-06T03:58:07.094Z,1377.30
2018-11-06T03:59:07.068Z,1283.50
2018-11-06T04:00:07.036Z,1606.70
2018-11-06T04:01:07.005Z,1218.10
2018-11-06T04:02:06.978Z,1391.90
2018-11-06T04:03:06.948Z,1270.40
2018-11-06T04:04:06.923Z,1567.50
2018-11-06T04:05:06.889Z,1602.00
2018-11-06T04:06:06.858Z,1373.00
2018-11-06T04:07:06.829Z,1255.30
2018-11-06T04:08:06.802Z,1843.30
2018-11-06T04:09:06.770Z,1247.50
2018-11-06T04:10:06.740Z,1753.50
2018-11-06T04:11:06.720Z,1750.70
2018-11-06T04:12:06.713Z,1765.40
2018-11-06T04:13:06.658Z,1999.90
2018-11-06T04:14:06.624Z,1092.70
2018-11-06T04:15:06.594Z,1818.40
2018-11-06T04:16:06.566Z,1073.90
2018-11-06T04:17:06.536Z,1558.70
2018-11-06T04:18:06.503Z,1591.50
2018-11-06T04:19:06.474Z,1359.80
2018-11-06T04:20:06.445Z,1723.80
2018-11-06T04:21:06.416Z,1999.90
2018-11-06T04:22:06.388Z,1019.90
2018-11-06T04:23:06.357Z,1185.60
2018-11-06T04:24:06.328Z,1553.40
2018-11-06T04:25:06.448Z,1999.90
2018-11-06T04:26:06.269Z,1830.90
2018-11-06T04:27:06.236Z,1986.90
2018-11-06T04:28:06.208Z,1559.50
2018-11-06T04:29:06.179Z,1696.30
2018-11-06T04:30:06.149Z,1652.60
2018-11-06T04:31:06.120Z,1477.80
2018-11-06T04:32:06.090Z,1533.10
2018-11-06T04:33:06.061Z,1850.10
2018-11-06T04:34:06.032Z,1622.40
2018-11-06T04:35:06.001Z,1278.90
2018-11-06T04:36:05.973Z,1675.90
2018-11-06T04:37:05.993Z,1702.70
2018-11-06T04:38:05.913Z,1594.80
2018-11-06T04:39:05.884Z,1213.10
2018-11-06T04:40:05.858Z,1177.00
2018-11-06T04:41:05.825Z,1495.90
2018-11-06T04:42:05.798Z,1369.80
2018-11-06T04:43:05.765Z,1482.40
2018-11-06T04:44:05.736Z,1415.70
2018-11-06T04:45:05.708Z,1208.70
2018-11-06T04:46:05.677Z,1594.90
2018-11-06T04:47:05.649Z,1585.90
2018-11-06T04:48:05.625Z,1657.80
2018-11-06T04:49:05.589Z,1273.00
2018-11-06T04:50:05.598Z,820.50
2018-11-06T04:51:05.530Z,903.70
2018-11-06T04:52:05.501Z,603.50
2018-11-06T04:53:05.472Z,1066.30
2018-11-06T04:54:05.441Z,902.30
2018-11-06T04:55:05.413Z,856.00
2018-11-06T04:56:05.383Z,1183.80
2018-11-06T04:57:05.354Z,927.00
2018-11-06T04:58:05.325Z,805.50
2018-11-06T04:59:05.294Z,1071.60
2018-11-06T05:00:05.268Z,858.50
2018-11-06T05:01:05.239Z,832.60
2018-11-06T05:02:05.211Z,719.70
2018-11-06T05:03:05.179Z,727.70
2018-11-06T05:04:05.149Z,646.10
2018-11-06T05:05:05.120Z,964.00
2018-11-06T05:06:05.089Z,749.70
2018-11-06T05:07:05.203Z,745.70
2018-11-06T05:08:05.033Z,1325.00
2018-11-06T05:09:05.000Z,1206.00
2018-11-06T05:10:04.972Z,1000.90
2018-11-06T05:11:04.944Z,1531.80
2018-11-06T05:12:04.914Z,1708.20
2018-11-06T05:13:04.885Z,1209.70
2018-11-06T05:14:04.862Z,1224.30
2018-11-06T05:15:04.825Z,1284.00
2018-11-06T05:16:04.799Z,1999.00
2018-11-06T05:17:04.767Z,1633.60
2018-11-06T05:18:04.737Z,1735.00
2018-11-06T05:19:04.711Z,1522.00
2018-11-06T05:20:04.678Z,1888.10
2018-11-06T05:21:04.650Z,1939.50
2018-11-06T05:22:04.619Z,1999.90
2018-11-06T05:23:04.591Z,1630.00
2018-11-06T05:24:04.560Z,1880.10
2018-11-06T05:25:04.532Z,1999.90
2018-11-06T05:26:04.502Z,1999.90
2018-11-06T05:27:04.472Z,1999.90
2018-11-06T05:28:04.444Z,1999.90
2018-11-06T05:29:04.415Z,1999.90
2018-11-06T05:30:04.536Z,1999.90
2018-11-06T05:31:04.355Z,1999.90
2018-11-06T05:32:04.328Z,1999.90
2018-11-06T05:33:04.367Z,1779.70
2018-11-06T05:34:04.288Z,1733.30
2018-11-06T05:35:04.236Z,1999.90
2018-11-06T05:36:04.208Z,1780.70
2018-11-06T05:37:04.181Z,1783.50
2018-11-06T05:38:04.148Z,1775.40
2018-11-06T05:39:04.256Z,1831.00
2018-11-06T05:40:04.089Z,1523.70
2018-11-06T05:41:04.059Z,1708.30
2018-11-06T05:42:04.040Z,1999.90
2018-11-06T05:43:04.001Z,1999.90
2018-11-06T05:44:04.094Z,1999.90
2018-11-06T05:45:03.942Z,1899.50
2018-11-06T05:46:03.911Z,1999.90
2018-11-06T05:47:03.884Z,1999.90
2018-11-06T05:48:03.853Z,1623.30
2018-11-06T05:49:03.829Z,1765.20
2018-11-06T05:50:03.797Z,1397.30
2018-11-06T05:51:03.766Z,1337.60
2018-11-06T05:52:03.736Z,1610.40
2018-11-06T05:53:03.883Z,1211.50
2018-11-06T05:54:03.675Z,1525.80
2018-11-06T05:55:03.655Z,1999.90
2018-11-06T05:56:03.620Z,1999.90
2018-11-06T05:57:03.588Z,1622.90
2018-11-06T05:58:03.559Z,1399.30
2018-11-06T05:59:03.532Z,1024.30
2018-11-06T06:00:03.500Z,1063.60
2018-11-06T06:01:03.471Z,749.90
2018-11-06T06:02:03.441Z,1539.20
2018-11-06T06:03:03.413Z,1130.20
2018-11-06T06:04:03.382Z,1037.70
2018-11-06T06:05:03.356Z,1077.30
2018-11-06T06:06:03.324Z,877.50
2018-11-06T06:07:03.295Z,701.90
2018-11-06T06:08:03.271Z,750.20
2018-11-06T06:09:03.236Z,855.40
2018-11-06T06:10:03.206Z,631.70
2018-11-06T06:11:03.211Z,1203.10
2018-11-06T06:12:03.155Z,1090.80
2018-11-06T06:13:03.117Z,513.80
2018-11-06T06:14:03.088Z,638.70
2018-11-06T06:15:03.059Z,470.40
2018-11-06T06:16:03.029Z,662.50
2018-11-06T06:17:03.033Z,509.10
2018-11-06T06:18:02.970Z,623.10
2018-11-06T06:19:02.940Z,502.80
2018-11-06T06:20:02.915Z,1256.30
2018-11-06T06:21:02.884Z,1361.90
2018-11-06T06:22:02.857Z,899.00
2018-11-06T06:23:02.824Z,404.80
2018-11-06T06:24:02.795Z,726.80
2018-11-06T06:25:02.765Z,626.20
2018-11-06T06:26:02.736Z,614.10
2018-11-06T06:27:02.706Z,1603.30
2018-11-06T06:28:02.681Z,858.50
2018-11-06T06:29:02.799Z,428.60
2018-11-06T06:30:02.618Z,842.00
2018-11-06T06:31:02.591Z,552.30
2018-11-06T06:32:02.561Z,953.80
2018-11-06T06:33:02.531Z,609.40
2018-11-06T06:34:02.503Z,595.80
2018-11-06T06:35:02.564Z,579.40
2018-11-06T06:36:02.444Z,489.60
2018-11-06T06:37:02.414Z,566.00
2018-11-06T06:38:02.384Z,956.80
2018-11-06T06:39:02.357Z,615.20
2018-11-06T06:40:02.377Z,631.70
2018-11-06T06:41:02.412Z,676.30
2018-11-06T06:42:02.267Z,693.70
2018-11-06T06:43:02.244Z,1275.60
2018-11-06T06:44:02.209Z,1164.20
2018-11-06T06:45:02.182Z,1625.10
2018-11-06T06:46:02.150Z,1118.80
2018-11-06T06:47:02.121Z,1209.90
2018-11-06T06:48:02.093Z,1175.60
2018-11-06T06:49:02.067Z,945.40
2018-11-06T06:50:02.056Z,532.30
2018-11-06T06:51:02.025Z,591.70
2018-11-06T06:52:01.978Z,927.50
2018-11-06T06:53:01.947Z,585.60
2018-11-06T06:54:01.995Z,856.40
2018-11-06T06:55:01.983Z,669.50
2018-11-06T06:56:01.869Z,790.00
2018-11-06T06:57:01.838Z,642.30
2018-11-06T06:58:01.803Z,695.00
2018-11-06T06:59:01.769Z,621.90
2018-11-06T07:00:01.742Z,616.80
2018-11-06T07:01:01.718Z,518.10
2018-11-06T07:02:01.683Z,472.80
2018-11-06T07:03:01.654Z,443.70
2018-11-06T07:04:01.625Z,766.40
2018-11-06T07:05:01.598Z,1192.80
2018-11-06T07:06:01.566Z,1256.00
2018-11-06T07:07:01.537Z,1947.80
2018-11-06T07:08:01.509Z,957.10
2018-11-06T07:09:01.480Z,825.10
2018-11-06T07:10:01.450Z,990.50
2018-11-06T07:11:01.420Z,1088.50
2018-11-06T07:12:01.400Z,855.80
2018-11-06T07:13:01.437Z,669.00
2018-11-06T07:14:01.335Z,1422.70
2018-11-06T07:15:01.305Z,800.00
2018-11-06T07:16:01.275Z,562.70
2018-11-06T07:17:01.246Z,1449.20
2018-11-06T07:18:01.216Z,825.10
2018-11-06T07:19:01.187Z,1199.20
2018-11-06T07:20:01.159Z,689.10
2018-11-06T07:21:01.129Z,673.80
2018-11-06T07:22:01.113Z,706.80
2018-11-06T07:23:01.081Z,1448.50
2018-11-06T07:24:01.043Z,1065.20
2018-11-06T07:25:01.012Z,1380.40
2018-11-06T07:26:00.982Z,899.00
2018-11-06T07:27:00.954Z,1207.00
2018-11-06T07:28:00.948Z,567.00
2018-11-06T07:29:00.901Z,1115.00
2018-11-06T07:30:00.869Z,1112.00
2018-11-06T07:31:00.836Z,721.80
2018-11-06T07:32:00.807Z,390.30
2018-11-06T07:33:00.781Z,1266.90
2018-11-06T07:34:00.750Z,542.80
2018-11-06T07:35:00.860Z,1142.30
2018-11-06T07:36:00.694Z,1094.20
2018-11-06T07:37:00.662Z,805.90
2018-11-06T07:38:00.636Z,1265.00
2018-11-06T07:39:00.606Z,1623.80
2018-11-06T07:40:00.575Z,1397.80
2018-11-06T07:41:00.569Z,1369.00
2018-11-06T07:42:00.514Z,1415.80
2018-11-06T07:43:00.485Z,972.20
2018-11-06T07:44:00.467Z,987.80
2018-11-06T07:45:00.428Z,403.80
2018-11-06T07:46:00.398Z,1089.30
2018-11-06T07:47:00.369Z,837.50
2018-11-06T07:48:00.339Z,933.90
2018-11-06T07:49:00.312Z,1371.30
2018-11-06T07:50:00.313Z,1720.10
2018-11-06T07:51:00.302Z,475.60
2018-11-06T07:52:00.228Z,1288.20
2018-11-06T07:53:00.196Z,1891.20
2018-11-06T07:54:00.169Z,689.70
2018-11-06T07:55:00.139Z,638.10
2018-11-06T07:56:00.138Z,923.10
2018-11-06T07:57:00.079Z,833.20
2018-11-06T07:58:00.055Z,308.10
2018-11-06T07:59:00.023Z,478.30
2018-11-06T07:59:59.992Z,270.70
2018-11-06T08:00:59.963Z,340.10
2018-11-06T08:01:59.940Z,344.70
2018-11-06T08:02:59.919Z,332.10
2018-11-06T08:03:59.911Z,635.10
2018-11-06T08:05:00.001Z,463.90
2018-11-06T08:05:59.818Z,639.00
2018-11-06T08:06:59.790Z,859.40
2018-11-06T08:07:59.764Z,422.10
2018-11-06T08:08:59.732Z,512.40
2018-11-06T08:09:59.703Z,729.70
2018-11-06T08:10:59.678Z,633.30
2018-11-06T08:11:59.646Z,600.90
2018-11-06T08:12:59.624Z,1230.60
2018-11-06T08:13:59.588Z,732.50
2018-11-06T08:14:59.613Z,672.50
2018-11-06T08:15:59.538Z,381.50
2018-11-06T08:16:59.502Z,397.00
2018-11-06T08:17:59.502Z,399.60
2018-11-06T08:18:59.444Z,400.90
2018-11-06T08:19:59.418Z,395.20
2018-11-06T08:20:59.389Z,1032.60
2018-11-06T08:21:59.358Z,676.70
2018-11-06T08:22:59.332Z,649.30
2018-11-06T08:23:59.305Z,1254.70
2018-11-06T08:24:59.273Z,956.50
2018-11-06T08:25:59.246Z,513.40
2018-11-06T08:26:59.215Z,1240.70
2018-11-06T08:27:59.187Z,1323.10
2018-11-06T08:28:59.159Z,1083.60
2018-11-06T08:29:59.128Z,632.40
2018-11-06T08:30:59.229Z,426.80
2018-11-06T08:31:59.856Z,454.20
2018-11-06T08:32:59.044Z,713.30
2018-11-06T08:33:59.016Z,778.90
2018-11-06T08:34:58.997Z,583.60
2018-11-06T08:35:59.012Z,884.80
2018-11-06T08:36:59.002Z,1173.10
2018-11-06T08:37:58.900Z,1094.70
2018-11-06T08:38:58.879Z,889.20
2018-11-06T08:39:58.844Z,703.70
2018-11-06T08:40:58.825Z,927.00
2018-11-06T08:41:58.787Z,983.50
2018-11-06T08:42:58.763Z,1168.50
2018-11-06T08:43:58.731Z,918.40
2018-11-06T08:44:58.702Z,838.70
2018-11-06T08:45:58.675Z,846.50
2018-11-06T08:46:58.646Z,547.80
2018-11-06T08:47:58.638Z,718.10
2018-11-06T08:48:58.590Z,509.90
2018-11-06T08:49:58.569Z,561.80
2018-11-06T08:50:58.533Z,1023.00
2018-11-06T08:51:58.505Z,455.30
2018-11-06T08:52:58.480Z,369.40
2018-11-06T08:53:58.447Z,469.90
2018-11-06T08:54:58.421Z,311.70
2018-11-06T08:55:58.393Z,322.20
2018-11-06T08:56:58.363Z,345.00
2018-11-06T08:57:58.336Z,513.70
2018-11-06T08:58:58.308Z,812.70
2018-11-06T08:59:58.281Z,383.60
2018-11-06T09:00:58.254Z,457.00
2018-11-06T09:01:58.224Z,553.10
2018-11-06T09:02:58.199Z,320.60
2018-11-06T09:03:58.168Z,651.40
2018-11-06T09:04:58.141Z,359.20
2018-11-06T09:05:58.113Z,427.80
2018-11-06T09:06:58.137Z,351.00
2018-11-06T09:07:58.058Z,357.60
2018-11-06T09:08:58.139Z,486.00
2018-11-06T09:09:58.001Z,545.40
2018-11-06T09:10:57.977Z,357.40
2018-11-06T09:11:57.959Z,309.20
2018-11-06T09:12:57.920Z,491.00
2018-11-06T09:13:57.891Z,905.10
2018-11-06T09:14:57.871Z,644.00
2018-11-06T09:15:57.845Z,1490.20
2018-11-06T09:16:57.845Z,766.10
2018-11-06T09:17:57.781Z,497.90
2018-11-06T09:18:57.756Z,680.00
2018-11-06T09:19:57.727Z,578.40
2018-11-06T09:20:57.699Z,316.80
2018-11-06T09:21:57.675Z,776.20
2018-11-06T09:22:57.651Z,646.40
2018-11-06T09:23:57.616Z,621.70
2018-11-06T09:24:57.590Z,549.40
2018-11-06T09:25:57.562Z,484.40
2018-11-06T09:26:57.535Z,428.30
2018-11-06T09:27:57.511Z,284.20
2018-11-06T09:28:57.484Z,317.60
2018-11-06T09:29:57.457Z,348.70
2018-11-06T09:30:57.509Z,449.20
2018-11-06T09:31:57.400Z,571.50
2018-11-06T09:32:57.373Z,388.10
2018-11-06T09:33:57.345Z,237.60
2018-11-06T09:34:57.317Z,195.60
2018-11-06T09:35:57.292Z,271.00
2018-11-06T09:36:57.265Z,275.60
2018-11-06T09:37:57.239Z,242.20
2018-11-06T09:38:57.210Z,400.80
2018-11-06T09:39:57.183Z,192.20
2018-11-06T09:40:57.222Z,154.70
2018-11-06T09:41:57.132Z,133.80
2018-11-06T09:42:57.106Z,196.20
2018-11-06T09:43:57.076Z,161.20
2018-11-06T09:44:57.107Z,325.00
2018-11-06T09:45:57.024Z,905.50
2018-11-06T09:46:56.996Z,214.20
2018-11-06T09:47:56.969Z,452.70
2018-11-06T09:48:56.950Z,513.30
2018-11-06T09:49:56.915Z,259.50
2018-11-06T09:50:56.892Z,129.40
2018-11-06T09:51:56.914Z,125.70
2018-11-06T09:52:56.844Z,204.50
2018-11-06T09:53:56.813Z,153.10
2018-11-06T09:54:56.783Z,161.80
2018-11-06T09:55:56.756Z,129.10
2018-11-06T09:56:56.729Z,105.60
2018-11-06T09:57:56.702Z,163.50
2018-11-06T09:58:56.701Z,125.70
2018-11-06T09:59:56.703Z,108.40
2018-11-06T10:00:56.623Z,257.80
2018-11-06T10:01:56.596Z,184.00
2018-11-06T10:02:56.577Z,175.70
2018-11-06T10:03:56.543Z,157.90
2018-11-06T10:04:56.529Z,147.00
2018-11-06T10:05:56.490Z,119.40
2018-11-06T10:06:56.779Z,160.20
2018-11-06T10:07:56.459Z,129.40
2018-11-06T10:08:56.412Z,103.10
2018-11-06T10:09:56.384Z,95.80
2018-11-06T10:10:56.359Z,101.60
2018-11-06T10:11:56.331Z,102.20
2018-11-06T10:12:56.316Z,93.90
2018-11-06T10:13:56.278Z,97.30
2018-11-06T10:14:56.253Z,97.50
2018-11-06T10:15:56.228Z,89.40
2018-11-06T10:16:56.200Z,87.40
2018-11-06T10:17:56.173Z,95.00
2018-11-06T10:18:56.146Z,90.00
2018-11-06T10:19:56.121Z,88.90
2018-11-06T10:20:56.095Z,88.20
2018-11-06T10:21:56.070Z,119.40
2018-11-06T10:22:56.040Z,86.70
2018-11-06T10:23:56.018Z,90.50
2018-11-06T10:24:55.987Z,89.60
2018-11-06T10:25:55.960Z,88.80
2018-11-06T10:26:55.933Z,112.70
2018-11-06T10:27:55.907Z,105.00
2018-11-06T10:28:55.879Z,92.20
2018-11-06T10:29:55.853Z,87.70
2018-11-06T10:30:55.984Z,83.70
2018-11-06T10:31:55.804Z,84.50
2018-11-06T10:32:55.776Z,84.10
2018-11-06T10:33:55.751Z,85.80
2018-11-06T10:34:55.723Z,78.00
2018-11-06T10:35:55.693Z,85.30
2018-11-06T10:36:55.666Z,82.90
2018-11-06T10:37:55.670Z,82.70
2018-11-06T10:38:55.612Z,76.00
2018-11-06T10:39:55.591Z,79.70
2018-11-06T10:40:55.560Z,71.90
2018-11-06T10:41:55.533Z,74.60
2018-11-06T10:42:55.507Z,72.40
2018-11-06T10:43:55.483Z,69.10
2018-11-06T10:44:55.456Z,73.00
2018-11-06T10:45:55.430Z,71.20
2018-11-06T10:46:55.401Z,69.80
2018-11-06T10:47:55.377Z,63.40
2018-11-06T10:48:55.350Z,62.40
2018-11-06T10:49:55.324Z,62.80
2018-11-06T10:50:55.297Z,62.30
2018-11-06T10:51:55.398Z,61.20
2018-11-06T10:52:55.247Z,59.90
2018-11-06T10:53:55.218Z,62.40
2018-11-06T10:54:55.195Z,59.10
2018-11-06T10:55:55.167Z,57.20
2018-11-06T10:56:55.142Z,52.90
2018-11-06T10:57:55.142Z,49.90
2018-11-06T10:58:55.093Z,53.50
2018-11-06T10:59:55.064Z,53.10
2018-11-06T11:00:55.038Z,53.50
2018-11-06T11:01:55.014Z,51.70
2018-11-06T11:02:54.990Z,51.40
2018-11-06T11:03:55.031Z,44.90
2018-11-06T11:04:54.945Z,56.90
2018-11-06T11:05:54.909Z,44.00
2018-11-06T11:06:54.883Z,47.40
2018-11-06T11:07:54.858Z,51.30
2018-11-06T11:08:54.836Z,44.20
2018-11-06T11:09:54.811Z,45.10
2018-11-06T11:10:54.781Z,42.20
2018-11-06T11:11:54.756Z,45.50
2018-11-06T11:12:54.749Z,43.90
2018-11-06T11:13:54.711Z,40.80
2018-11-06T11:14:54.680Z,43.90
2018-11-06T11:15:54.661Z,38.40
2018-11-06T11:16:54.633Z,40.90
2018-11-06T11:17:54.605Z,45.00
2018-11-06T11:18:54.612Z,44.40
2018-11-06T11:19:54.555Z,43.00
2018-11-06T11:20:54.530Z,41.70
2018-11-06T11:21:54.508Z,45.10
2018-11-06T11:22:54.481Z,41.00
2018-11-06T11:23:54.455Z,37.90
2018-11-06T11:24:54.435Z,41.90
2018-11-06T11:25:54.406Z,41.40
2018-11-06T11:26:54.389Z,40.50
2018-11-06T11:27:54.357Z,45.60
2018-11-06T11:28:54.333Z,42.60
2018-11-06T11:29:54.307Z,41.60
2018-11-06T11:30:54.282Z,45.20
2018-11-06T11:31:54.307Z,44.20
2018-11-06T11:32:54.235Z,40.40
2018-11-06T11:33:54.243Z,45.40
2018-11-06T11:34:54.192Z,43.30
2018-11-06T11:35:54.161Z,42.60
2018-11-06T11:36:54.141Z,39.90
2018-11-06T11:37:54.202Z,42.10
2018-11-06T11:38:54.087Z,41.00
2018-11-06T11:39:54.063Z,36.50
2018-11-06T11:40:54.041Z,37.80
2018-11-06T11:41:54.013Z,38.70
2018-11-06T11:42:53.993Z,39.30
2018-11-06T11:43:53.971Z,43.40
2018-11-06T11:44:53.943Z,40.20
2018-11-06T11:45:54.053Z,46.70
2018-11-06T11:46:53.901Z,43.00
2018-11-06T11:47:53.877Z,46.60
2018-11-06T11:48:53.851Z,40.90
2018-11-06T11:49:53.827Z,48.90
2018-11-06T11:50:53.803Z,46.20
2018-11-06T11:51:53.783Z,37.90
2018-11-06T11:52:53.753Z,43.20
2018-11-06T11:53:53.730Z,39.80
2018-11-06T11:54:53.742Z,43.00
2018-11-06T11:55:53.687Z,40.80
2018-11-06T11:56:53.661Z,40.70
2018-11-06T11:57:53.651Z,46.40
2018-11-06T11:58:53.614Z,44.00
2018-11-06T11:59:53.608Z,44.60
2018-11-06T12:00:53.567Z,41.90
2018-11-06T12:01:53.546Z,41.50
2018-11-06T12:02:53.521Z,47.00
2018-11-06T12:03:53.500Z,48.90
2018-11-06T12:04:53.476Z,46.60
2018-11-06T12:05:53.453Z,42.20
2018-11-06T12:06:53.431Z,42.70
2018-11-06T12:07:53.412Z,44.80
2018-11-06T12:08:53.386Z,44.50
2018-11-06T12:09:53.367Z,42.40
2018-11-06T12:10:53.340Z,47.10
2018-11-06T12:11:53.321Z,45.20
2018-11-06T12:12:53.295Z,48.00
2018-11-06T12:13:53.272Z,45.10
2018-11-06T12:14:53.251Z,45.90
2018-11-06T12:15:53.235Z,46.20
2018-11-06T12:16:53.206Z,49.10
2018-11-06T12:17:53.219Z,44.10
2018-11-06T12:18:53.167Z,47.50
2018-11-06T12:19:53.139Z,43.10
2018-11-06T12:20:53.117Z,45.90
2018-11-06T12:21:53.094Z,47.50
2018-11-06T12:22:53.071Z,40.30